Time;durP1;ratioP1;P1;durP2;ratioP2;P2;SDS_P1;SDS_P2;PMS_P1;PMS_P2;Temp;Humidity;BMP_temperature;BMP_pressure;BME280_temperature;BME280_humidity;BME280_pressure;Samples;Min_cycle;Max_cycle;Signal;HPM_P1;HPM_P2
2021/03/15 00:00:26;;;;;;;9.43;8.63;;;3.30;99.90;;;4.26;96.78;97667.94;5206993;28;20226;-61
2021/03/15 00:02:59;;;;;;;10.03;9.17;;;3.40;99.90;;;4.33;96.42;97665.13;5207910;28;20663;-60
2021/03/15 00:05:32;;;;;;;10.00;9.20;;;3.40;99.90;;;4.26;96.45;97665.41;5207581;28;20209;-60
2021/03/15 00:08:05;;;;;;;9.70;8.87;;;3.40;99.90;;;4.29;96.54;97663.13;5207113;28;20233;-60
2021/03/15 00:10:37;;;;;;;10.73;9.87;;;3.40;99.90;;;4.30;96.44;97669.97;5206938;28;20195;-60
2021/03/15 00:13:09;;;;;;;10.23;9.33;;;3.40;99.90;;;4.33;96.21;97667.66;5207415;28;20780;-60
2021/03/15 00:15:43;;;;;;;10.47;9.47;;;3.40;99.90;;;4.29;96.04;97673.22;5207210;28;20574;-59
2021/03/15 00:18:16;;;;;;;11.00;9.83;;;3.30;99.90;;;4.32;96.01;97673.50;5207042;28;20202;-61
2021/03/15 00:20:48;;;;;;;10.50;9.40;;;3.40;99.90;;;4.32;95.51;97673.50;5207464;28;20189;-60
2021/03/15 00:23:21;;;;;;;9.37;8.47;;;3.40;99.90;;;4.30;95.28;97675.03;5207410;28;20205;-58
2021/03/15 00:25:53;;;;;;;10.40;9.50;;;3.40;99.90;;;4.25;95.23;97668.72;5207298;28;20213;-60
2021/03/15 00:28:25;;;;;;;10.80;9.73;;;3.40;99.90;;;4.19;94.92;97674.19;5207203;28;20222;-60
2021/03/15 00:30:57;;;;;;;10.27;9.33;;;3.30;99.90;;;4.09;95.08;97668.25;5207227;28;20195;-58
2021/03/15 00:33:30;;;;;;;10.17;9.27;;;3.30;99.90;;;4.04;95.62;97673.84;5207356;28;20252;-58
2021/03/15 00:36:18;;;;;;;9.73;8.93;;;3.30;99.90;;;4.03;95.58;97664.53;5207259;28;20581;-61
2021/03/15 00:38:50;;;;;;;10.10;9.20;;;3.30;99.90;;;3.94;95.27;97663.75;5206904;28;20235;-59
2021/03/15 00:41:22;;;;;;;10.17;8.20;;;3.10;99.90;;;3.84;95.21;97656.22;5207421;28;20554;-60
2021/03/15 00:43:55;;;;;;;9.43;8.33;;;3.00;99.90;;;3.81;95.39;97650.94;5207164;28;20709;-58
2021/03/15 00:46:27;;;;;;;9.47;8.57;;;3.00;99.90;;;3.73;95.99;97662.09;5207119;28;20208;-59
2021/03/15 00:49:00;;;;;;;9.40;8.50;;;3.00;99.90;;;3.79;96.24;97663.44;5206913;28;20226;-60
2021/03/15 00:51:32;;;;;;;9.40;8.50;;;2.90;99.90;;;3.75;96.23;97665.59;5207128;28;20280;-60
2021/03/15 00:54:05;;;;;;;9.27;8.40;;;2.90;99.90;;;3.75;95.24;97666.50;5206959;28;20260;-58
2021/03/15 00:56:37;;;;;;;8.40;7.70;;;2.80;99.90;;;3.41;94.24;97672.13;5206609;28;20649;-60
2021/03/15 00:59:08;;;;;;;9.50;8.53;;;2.70;99.90;;;3.22;93.07;97662.16;5206665;28;20214;-60
2021/03/15 01:01:43;;;;;;;9.13;8.23;;;2.50;99.90;;;3.06;94.14;97668.50;5206412;28;20663;-60
2021/03/15 01:04:16;;;;;;;9.43;8.43;;;2.40;99.90;;;2.84;93.66;97670.84;5206316;28;20289;-60
2021/03/15 01:06:48;;;;;;;9.33;8.33;;;2.20;99.90;;;2.69;93.49;97660.38;5207028;28;20611;-61
2021/03/15 01:09:20;;;;;;;9.00;8.20;;;2.10;99.90;;;2.57;94.00;97663.50;5205670;28;20740;-60
2021/03/15 01:11:52;;;;;;;10.83;9.87;;;2.00;99.90;;;2.54;94.38;97663.25;5206886;28;20569;-61
2021/03/15 01:14:24;;;;;;;10.30;9.30;;;2.00;99.90;;;2.63;94.91;97652.31;5206079;28;20228;-60
2021/03/15 01:16:57;;;;;;;10.73;9.70;;;2.00;99.90;;;2.66;94.69;97656.69;5206276;28;20306;-60
2021/03/15 01:19:30;;;;;;;9.60;8.57;;;2.10;99.90;;;2.62;95.24;97658.09;5206323;28;20628;-61
2021/03/15 01:22:02;;;;;;;10.13;8.93;;;2.10;99.90;;;2.68;96.42;97647.63;5206451;28;20202;-60
2021/03/15 01:24:34;;;;;;;10.23;9.33;;;2.10;99.90;;;2.70;96.43;97636.91;5206229;28;20198;-61
2021/03/15 01:27:07;;;;;;;11.37;9.47;;;2.10;99.90;;;2.77;97.18;97638.28;5206129;28;20642;-61
2021/03/15 01:29:39;;;;;;;10.50;9.47;;;2.10;99.90;;;2.76;97.23;97636.53;5206029;28;20625;-60
2021/03/15 01:32:13;;;;;;;10.57;9.47;;;2.20;99.90;;;2.83;98.05;97638.81;5205737;28;20198;-60
2021/03/15 01:34:45;;;;;;;11.07;10.07;;;2.20;99.90;;;2.82;98.65;97631.97;5206078;28;20259;-60
2021/03/15 01:37:17;;;;;;;11.77;10.70;;;2.20;99.90;;;2.88;98.68;97632.50;5206037;28;20221;-59
2021/03/15 01:39:49;;;;;;;11.43;10.10;;;2.20;99.90;;;2.87;99.18;97630.72;5206058;28;20225;-61
2021/03/15 01:42:21;;;;;;;11.63;10.53;;;2.20;99.90;;;2.90;99.42;97625.06;5205716;28;20207;-61
2021/03/15 01:44:53;;;;;;;10.93;9.83;;;2.20;99.90;;;2.93;100.00;97620.25;5205914;28;20217;-58
2021/03/15 01:47:26;;;;;;;11.70;10.50;;;2.30;99.90;;;2.95;100.00;97623.81;5205697;28;20199;-60
2021/03/15 01:49:58;;;;;;;11.57;9.90;;;2.30;99.90;;;2.99;99.88;97620.75;5206061;28;20232;-60
2021/03/15 01:52:31;;;;;;;12.30;11.13;;;2.30;99.90;;;3.00;99.92;97611.53;5205537;28;20207;-60
2021/03/15 01:55:05;;;;;;;11.40;10.40;;;2.30;99.90;;;2.98;99.75;97603.84;5205833;28;20221;-60
2021/03/15 01:57:38;;;;;;;11.30;10.00;;;2.30;99.90;;;2.94;99.99;97605.22;5205446;28;20186;-60
2021/03/15 02:00:13;;;;;;;11.27;10.23;;;2.20;99.90;;;2.89;100.00;97593.91;5206111;28;20231;-58
2021/03/15 02:02:53;;;;;;;11.60;10.50;;;2.20;99.90;;;2.94;99.55;97594.25;5205702;28;20685;-60
2021/03/15 02:05:26;;;;;;;11.00;9.93;;;2.30;99.90;;;2.91;100.00;97599.06;5205703;28;20197;-60
2021/03/15 02:07:58;;;;;;;11.47;10.27;;;2.20;99.90;;;2.88;100.00;97602.19;5205294;28;20194;-60
2021/03/15 02:10:30;;;;;;;11.13;10.03;;;2.20;99.90;;;2.90;100.00;97600.69;5205371;28;20236;-60
2021/03/15 02:13:39;;;;;;;11.37;10.17;;;2.20;99.90;;;2.71;98.25;97588.19;5205610;28;20634;-60
2021/03/15 02:16:20;;;;;;;11.23;10.13;;;2.10;99.90;;;2.81;100.00;97588.97;5205426;28;20457;-61
2021/03/15 02:19:50;;;;;;;11.27;10.27;;;2.10;99.90;;;2.87;100.00;97584.44;5205242;28;20228;-60
2021/03/15 02:22:34;;;;;;;11.00;10.00;;;2.20;99.90;;;2.95;100.00;97588.47;5205450;28;20599;-60
2021/03/15 02:25:45;;;;;;;12.20;10.97;;;2.20;99.90;;;3.02;100.00;97582.25;5205556;28;20186;-60
2021/03/15 02:28:31;;;;;;;12.10;10.83;;;2.30;99.90;;;2.92;99.87;97570.56;5205559;28;20279;-60
2021/03/15 02:31:54;;;;;;;11.90;10.77;;;2.20;99.90;;;2.96;99.91;97559.06;5205434;28;20638;-61
2021/03/15 02:34:57;;;;;;;11.13;10.13;;;2.10;99.90;;;2.96;100.00;97556.53;5170009;28;20222;-60
2021/03/15 02:37:34;;;;;;;12.17;10.97;;;2.20;99.90;;;2.98;100.00;97560.06;5202185;28;20278;-61
2021/03/15 02:40:16;;;;;;;12.33;11.03;;;2.20;99.90;;;2.93;99.68;97552.09;5204982;28;20217;-60
2021/03/15 02:42:53;;;;;;;11.53;10.43;;;2.20;99.90;;;2.94;100.00;97547.16;5205327;28;20655;-60
2021/03/15 02:45:26;;;;;;;13.13;11.83;;;2.20;99.90;;;3.00;100.00;97535.81;5205125;28;20201;-60
2021/03/15 02:48:01;;;;;;;12.60;11.30;;;2.30;99.90;;;3.05;100.00;97530.38;5204672;28;20195;-60
2021/03/15 02:50:35;;;;;;;11.77;10.67;;;2.30;99.90;;;3.04;99.95;97527.75;5204920;28;20198;-59
2021/03/15 02:53:14;;;;;;;11.10;10.10;;;2.30;99.90;;;3.05;100.00;97530.38;5205050;28;20298;-61
2021/03/15 02:55:49;;;;;;;12.27;11.13;;;2.30;99.90;;;3.11;100.00;97530.84;5205276;28;20195;-60
2021/03/15 02:58:22;;;;;;;12.40;11.10;;;2.30;99.90;;;3.13;100.00;97524.31;5204999;28;20197;-60
2021/03/15 03:00:55;;;;;;;13.33;12.13;;;2.40;99.90;;;3.16;100.00;97528.72;5205169;28;20200;-60
2021/03/15 03:03:29;;;;;;;14.43;13.00;;;2.40;99.90;;;3.18;100.00;97532.25;5205139;28;20672;-60
2021/03/15 03:06:03;;;;;;;14.07;11.77;;;2.40;99.90;;;3.20;100.00;97532.34;5204858;28;20196;-61
2021/03/15 03:08:36;;;;;;;13.63;12.33;;;2.40;99.90;;;3.27;100.00;97527.06;5204308;28;20227;-60
2021/03/15 03:11:08;;;;;;;12.87;11.57;;;2.50;99.90;;;3.32;100.00;97528.28;5205118;28;20214;-60
2021/03/15 03:13:43;;;;;;;13.20;11.90;;;2.40;99.90;;;3.31;100.00;97524.00;5204483;28;20222;-61
2021/03/15 03:16:16;;;;;;;12.63;11.33;;;2.40;99.90;;;3.16;99.88;97519.50;5204855;28;20245;-60
2021/03/15 03:18:51;;;;;;;12.70;11.50;;;2.40;99.90;;;3.14;99.94;97515.94;5203914;28;20635;-60
2021/03/15 03:21:26;;;;;;;12.73;11.47;;;2.30;99.90;;;3.20;100.00;97504.59;5203539;28;20194;-60
2021/03/15 03:23:59;;;;;;;12.53;11.33;;;2.30;99.90;;;3.17;99.84;97506.09;5204867;28;20196;-61
2021/03/15 03:26:31;;;;;;;12.60;11.40;;;2.30;99.90;;;3.13;99.79;97499.06;5204962;28;20672;-60
2021/03/15 03:29:07;;;;;;;12.53;11.37;;;2.30;99.90;;;3.09;99.88;97496.16;5204476;28;20221;-58
2021/03/15 03:31:42;;;;;;;11.90;10.80;;;2.30;99.90;;;3.11;100.00;97492.09;5205246;28;20200;-60
2021/03/15 03:34:15;;;;;;;12.80;11.40;;;2.30;99.90;;;3.13;99.44;97485.56;5208763;28;20221;-59
2021/03/15 03:36:48;;;;;;;12.63;11.37;;;2.40;99.90;;;3.13;99.87;97483.03;5208661;28;20194;-60
2021/03/15 03:39:21;;;;;;;12.83;11.53;;;2.40;99.90;;;3.13;99.77;97473.81;5208499;28;20748;-61
2021/03/15 03:41:53;;;;;;;12.30;11.10;;;2.40;99.90;;;3.08;99.82;97475.06;5208463;28;20186;-58
2021/03/15 03:44:25;;;;;;;12.73;11.47;;;2.30;99.90;;;3.07;99.71;97475.84;5208366;28;20194;-60
2021/03/15 03:46:57;;;;;;;11.37;10.33;;;2.30;99.90;;;3.02;100.00;97474.59;5208242;28;20197;-59
2021/03/15 03:49:29;;;;;;;11.80;10.60;;;2.20;99.90;;;2.96;99.14;97474.09;5208277;28;20330;-60
2021/03/15 03:52:06;;;;;;;11.13;10.13;;;2.20;99.90;;;2.99;100.00;97479.41;5207946;28;20189;-60
2021/03/15 03:54:47;;;;;;;12.03;10.90;;;2.20;99.90;;;2.93;99.47;97473.88;5208373;28;20216;-61
2021/03/15 03:57:24;;;;;;;11.20;9.93;;;2.20;99.90;;;2.95;99.43;97467.31;5208057;28;20633;-60
2021/03/15 03:59:57;;;;;;;10.70;9.47;;;2.10;99.90;;;2.99;99.34;97469.31;5208044;28;20229;-61
2021/03/15 04:02:30;;;;;;;11.60;10.23;;;2.10;99.90;;;2.95;99.53;97467.31;5207712;28;20217;-61
2021/03/15 04:05:07;;;;;;;11.57;10.50;;;2.20;99.90;;;3.04;100.00;97468.03;5208077;28;20685;-60
2021/03/15 04:07:48;;;;;;;12.23;11.10;;;2.20;99.90;;;3.04;99.90;97477.25;5207803;28;20202;-61
2021/03/15 04:10:20;;;;;;;11.80;10.57;;;2.20;99.90;;;3.04;99.59;97473.09;5207848;28;20257;-59
2021/03/15 04:12:58;;;;;;;12.07;10.87;;;2.20;99.90;;;3.09;100.00;97471.81;5207831;28;20616;-60
2021/03/15 04:15:31;;;;;;;11.50;9.73;;;2.30;99.90;;;3.13;99.65;97475.44;5207801;28;20217;-61
2021/03/15 04:18:08;;;;;;;10.17;9.27;;;2.30;99.90;;;3.07;99.52;97463.22;5207406;28;20202;-60
2021/03/15 04:20:44;;;;;;;10.13;8.53;;;2.30;99.90;;;3.11;99.98;97460.16;5220960;23;20788;-61
2021/03/15 04:23:25;;;;;;;11.07;9.93;;;2.30;99.90;;;3.15;99.79;97462.19;5199083;28;20200;-62
2021/03/15 04:25:58;;;;;;;9.97;8.97;;;2.30;99.90;;;3.16;99.51;97452.97;5186876;28;20200;-61
2021/03/15 04:28:33;;;;;;;10.80;9.60;;;2.30;99.90;;;3.21;99.91;97455.88;5186309;28;20200;-62
2021/03/15 04:31:09;;;;;;;10.60;9.50;;;2.40;99.90;;;3.27;100.00;97451.28;5200703;28;20224;-62
2021/03/15 04:33:42;;;;;;;9.50;8.70;;;2.40;99.90;;;3.28;99.69;97450.50;5206826;28;20230;-63
2021/03/15 04:36:16;;;;;;;9.90;8.93;;;2.40;99.90;;;3.29;99.90;97444.69;5207115;28;20214;-61
2021/03/15 04:38:50;;;;;;;9.40;8.17;;;2.50;99.90;;;3.33;99.85;97436.59;5206617;28;20288;-61
2021/03/15 04:41:22;;;;;;;9.90;8.90;;;2.60;99.90;;;3.37;99.58;97443.66;5207164;28;20226;-62
2021/03/15 04:43:54;;;;;;;11.63;9.80;;;2.60;99.90;;;3.41;100.00;97435.56;5206780;28;20662;-61
2021/03/15 04:46:27;;;;;;;15.03;11.07;;;2.60;99.90;;;3.46;99.86;97435.91;5206815;28;20202;-62
2021/03/15 04:49:06;;;;;;;13.47;11.30;;;2.60;99.90;;;3.48;100.00;97437.78;5206474;28;20793;-63
2021/03/15 04:51:39;;;;;;;11.73;10.30;;;2.60;99.90;;;3.45;99.88;97435.03;5207013;28;20229;-62
2021/03/15 04:54:12;;;;;;;11.50;10.27;;;2.60;99.90;;;3.44;99.99;97435.78;5206636;28;20224;-61
2021/03/15 04:56:45;;;;;;;12.73;11.43;;;2.60;99.90;;;3.49;99.89;97426.94;5206404;28;20208;-62
2021/03/15 04:59:19;;;;;;;9.93;9.03;;;2.70;99.90;;;3.63;98.81;97422.03;5206554;28;20225;-62
2021/03/15 05:01:52;;;;;;;8.67;7.83;;;2.60;99.90;;;3.72;98.05;97411.00;5203753;28;20214;-62
2021/03/15 05:04:25;;;;;;;7.93;7.13;;;2.70;99.90;;;3.84;97.17;97399.28;5206093;28;20204;-62
2021/03/15 05:06:57;;;;;;;7.57;6.70;;;2.80;99.90;;;3.89;96.43;97406.31;5191652;28;20681;-62
2021/03/15 05:09:32;;;;;;;8.10;6.90;;;2.80;99.90;;;3.73;96.88;97405.16;5203923;28;20221;-62
2021/03/15 05:12:14;;;;;;;7.67;6.87;;;2.80;99.90;;;3.67;97.37;97393.72;5206257;28;20213;-62
2021/03/15 05:14:48;;;;;;;8.20;7.10;;;2.80;99.90;;;3.74;97.78;97384.19;5206244;28;20225;-62
2021/03/15 05:17:21;;;;;;;8.30;6.67;;;2.80;99.90;;;3.80;97.53;97387.16;5199746;28;20685;-62
2021/03/15 05:19:59;;;;;;;7.13;6.33;;;2.80;99.90;;;3.91;97.13;97393.03;5185692;28;20665;-63
2021/03/15 05:22:33;;;;;;;7.23;5.80;;;2.90;99.90;;;3.88;96.99;97390.28;5204591;28;20199;-62
2021/03/15 05:25:10;;;;;;;6.63;6.10;;;2.90;99.90;;;3.80;97.15;97389.69;5206178;28;20217;-62
2021/03/15 05:27:43;;;;;;;7.23;6.33;;;2.90;99.90;;;3.78;97.84;97385.31;5189548;28;20205;-62
2021/03/15 05:30:19;;;;;;;6.93;6.20;;;2.90;99.90;;;3.87;98.05;97382.59;5204882;28;20304;-61
2021/03/15 05:32:53;;;;;;;7.87;6.80;;;3.00;99.90;;;3.84;97.74;97383.25;5188921;28;20571;-62
2021/03/15 05:35:27;;;;;;;6.37;5.77;;;3.00;99.90;;;3.91;97.62;97382.91;5204994;28;20226;-62
2021/03/15 05:38:00;;;;;;;6.97;6.33;;;3.00;99.90;;;3.91;97.94;97380.38;5198497;28;20201;-63
2021/03/15 05:40:37;;;;;;;8.93;6.37;;;3.00;99.90;;;4.03;97.67;97371.22;5190470;28;20224;-62
2021/03/15 05:43:49;;;;;;;9.93;7.73;;;3.00;99.90;;;4.15;96.87;97377.91;5196991;28;20286;-63
2021/03/15 05:46:55;;;;;;;8.03;7.03;;;3.10;99.90;;;4.10;96.08;97369.13;5191616;28;20210;-62
2021/03/15 05:50:14;;;;;;;8.87;5.70;;;3.10;99.90;;;4.19;96.26;97372.31;5197739;28;20300;-62
2021/03/15 05:53:16;;;;;;;8.13;5.93;;;3.10;99.90;;;4.19;95.01;97362.22;5170884;28;20673;-63
2021/03/15 05:56:15;;;;;;;8.00;5.57;;;3.20;99.90;;;4.17;95.26;97356.16;5191167;28;20215;-63
2021/03/15 05:59:29;;;;;;;7.10;5.97;;;3.10;99.90;;;4.15;94.74;97356.06;5202252;28;20206;-62
2021/03/15 06:02:13;;;;;;;8.17;5.30;;;3.20;99.90;;;4.06;94.64;97356.25;5189683;28;20196;-63
2021/03/15 06:04:54;;;;;;;8.43;5.80;;;3.00;99.90;;;4.00;95.18;97345.66;5190755;28;20195;-62
2021/03/15 06:07:33;;;;;;;6.87;5.43;;;3.10;99.90;;;3.96;95.88;97341.16;5201432;28;20257;-62
2021/03/15 06:10:07;;;;;;;6.53;5.83;;;3.00;99.90;;;3.96;96.18;97336.09;5207365;28;20225;-62
2021/03/15 06:12:48;;;;;;;9.10;5.77;;;3.00;99.90;;;4.00;96.18;97325.44;5198842;28;20583;-63
2021/03/15 06:15:34;;;;;;;7.93;6.33;;;3.00;99.90;;;3.98;96.29;97337.13;5202891;28;20280;-62
2021/03/15 06:18:07;;;;;;;6.50;5.90;;;3.00;99.90;;;3.97;96.22;97330.28;5194393;28;20200;-64
2021/03/15 06:20:42;;;;;;;9.80;5.87;;;3.00;99.90;;;4.09;95.74;97334.47;5196180;28;20231;-63
2021/03/15 06:23:16;;;;;;;7.50;5.93;;;3.00;99.90;;;3.93;96.33;97328.31;5192228;28;20197;-63
2021/03/15 06:25:49;;;;;;;7.13;5.73;;;3.00;99.90;;;4.01;96.77;97329.75;5202942;28;20197;-64
2021/03/15 06:28:24;;;;;;;7.30;5.83;;;3.00;99.90;;;3.97;93.55;97320.16;5198034;28;20218;-64
2021/03/15 06:30:56;;;;;;;5.97;5.47;;;3.00;99.90;;;3.78;94.55;97315.41;5201774;28;20238;-64
2021/03/15 06:33:29;;;;;;;6.40;5.90;;;2.90;99.90;;;3.70;95.63;97318.16;5194742;28;20280;-64
2021/03/15 06:36:04;;;;;;;6.47;5.87;;;2.90;99.90;;;3.79;94.95;97312.13;5187298;28;20191;-64
2021/03/15 06:38:39;;;;;;;5.83;5.43;;;2.80;99.90;;;3.71;92.53;97309.78;5195740;28;20196;-63
2021/03/15 06:41:11;;;;;;;5.40;4.90;;;2.70;99.90;;;3.60;92.91;97314.91;5197225;28;20295;-63
2021/03/15 06:43:44;;;;;;;5.70;5.30;;;2.70;99.90;;;3.54;94.40;97300.94;5200225;28;20577;-63
2021/03/15 06:46:16;;;;;;;5.87;5.10;;;2.80;99.90;;;3.51;95.74;97301.59;5188098;28;20330;-63
2021/03/15 06:48:48;;;;;;;6.50;5.23;;;2.70;99.90;;;3.59;95.19;97309.75;5200551;28;20194;-63
2021/03/15 06:51:20;;;;;;;5.80;5.37;;;2.70;99.90;;;3.42;95.51;97305.97;5183981;28;20224;-63
2021/03/15 06:53:52;;;;;;;5.63;5.03;;;2.70;99.90;;;3.32;95.72;97301.88;5201087;28;20568;-64
2021/03/15 06:56:24;;;;;;;6.10;5.60;;;2.60;99.90;;;3.24;95.90;97308.00;5198920;28;20194;-64
2021/03/15 06:58:57;;;;;;;6.23;5.63;;;2.60;99.90;;;3.25;96.05;97301.28;5195972;28;20198;-63
2021/03/15 07:01:29;;;;;;;6.00;5.50;;;2.60;99.90;;;3.26;96.99;97298.91;5194133;28;20222;-63
2021/03/15 07:04:07;;;;;;;5.67;5.17;;;2.60;99.90;;;3.24;97.27;97297.00;5197474;28;20564;-63
2021/03/15 07:06:42;;;;;;;6.40;5.60;;;2.60;99.90;;;3.22;96.74;97290.97;5200274;28;20285;-64
2021/03/15 07:09:16;;;;;;;7.93;6.10;;;2.60;99.90;;;3.22;96.02;97301.06;5203713;28;20661;-64
2021/03/15 07:12:01;;;;;;;7.67;6.90;;;2.50;99.90;;;3.25;97.25;97293.72;5196232;28;20215;-64
2021/03/15 07:14:34;;;;;;;6.90;6.20;;;2.50;99.90;;;3.37;96.96;97276.94;5192359;28;20218;-64
2021/03/15 07:17:08;;;;;;;7.57;6.87;;;2.50;99.90;;;3.38;96.51;97288.84;5198855;28;20272;-64
2021/03/15 07:19:43;;;;;;;7.73;7.00;;;2.60;99.90;;;3.50;96.60;97274.59;5205878;28;20226;-64
2021/03/15 07:22:21;;;;;;;7.40;6.80;;;2.60;99.90;;;3.55;94.65;97287.56;5206009;28;20668;-63
2021/03/15 07:25:23;;;;;;;7.23;6.53;;;2.70;99.90;;;3.35;95.01;97298.72;5206625;28;20212;-63
2021/03/15 07:27:55;;;;;;;7.10;6.40;;;2.60;99.90;;;3.35;96.59;97301.25;5122699;29;20720;-64
2021/03/15 07:30:35;;;;;;;7.63;6.93;;;2.60;99.90;;;3.45;96.95;97285.13;5190175;28;20218;-64
2021/03/15 07:33:17;;;;;;;8.90;7.50;;;2.70;99.90;;;3.47;95.67;97284.47;5205971;28;20203;-64
2021/03/15 07:35:50;;;;;;;8.40;7.27;;;2.60;99.90;;;3.47;96.34;97294.56;5199729;28;20307;-64
2021/03/15 07:38:33;;;;;;;8.33;7.63;;;2.70;99.90;;;3.48;97.23;97303.03;5203249;28;20200;-64
2021/03/15 07:41:13;;;;;;;7.17;6.47;;;2.70;99.90;;;3.47;96.19;97279.41;5196641;28;20224;-64
2021/03/15 07:43:46;;;;;;;7.53;6.80;;;2.70;99.90;;;3.54;96.52;97270.63;5201991;28;20285;-64
2021/03/15 07:46:21;;;;;;;8.67;7.87;;;2.70;99.90;;;3.64;95.47;97289.91;5202517;28;20197;-63
2021/03/15 07:48:54;;;;;;;8.20;7.40;;;2.80;99.90;;;3.48;96.15;97296.31;5190794;28;20194;-63
2021/03/15 07:51:29;;;;;;;8.17;7.37;;;2.80;99.90;;;3.64;97.13;97269.69;5186379;28;20204;-63
2021/03/15 07:54:04;;;;;;;7.67;6.87;;;2.90;99.90;;;3.84;95.15;97277.06;5186517;28;20202;-63
2021/03/15 07:56:36;;;;;;;9.47;7.40;;;3.10;99.90;;;3.68;96.03;97284.28;5201249;28;20563;-63
2021/03/15 07:59:08;;;;;;;10.43;7.77;;;3.00;99.90;;;3.66;96.88;97280.75;5190016;28;20207;-64
2021/03/15 08:01:42;;;;;;;7.53;6.87;;;3.10;99.90;;;3.66;96.97;97280.75;5195814;28;20199;-64
2021/03/15 08:04:15;;;;;;;7.97;7.27;;;3.00;99.90;;;3.70;97.61;97276.06;5203720;28;20204;-64
2021/03/15 08:06:48;;;;;;;7.53;6.83;;;3.10;99.90;;;3.70;97.72;97278.59;5205423;28;20635;-64
2021/03/15 08:09:20;;;;;;;7.63;6.83;;;3.10;99.90;;;3.88;98.00;97275.66;5205056;28;20229;-64
2021/03/15 08:11:56;;;;;;;6.87;6.23;;;3.10;99.90;;;4.03;98.44;97265.00;5205568;28;20197;-64
2021/03/15 08:14:28;;;;;;;6.57;5.93;;;3.20;99.90;;;4.08;98.36;97283.03;5185173;28;20222;-64
2021/03/15 08:17:03;;;;;;;6.37;5.80;;;3.30;99.90;;;4.15;98.69;97289.41;5184820;28;20209;-64
2021/03/15 08:19:37;;;;;;;6.53;5.83;;;3.40;99.90;;;4.11;97.79;97279.84;5191691;28;20340;-64
2021/03/15 08:22:12;;;;;;;6.47;5.97;;;3.40;99.90;;;4.25;98.78;97285.13;5185655;28;20206;-65
2021/03/15 08:24:46;;;;;;;6.40;5.90;;;3.50;99.90;;;4.29;98.40;97284.59;5191683;28;20244;-64
2021/03/15 08:27:21;;;;;;;5.93;4.73;;;3.50;99.90;;;4.33;97.62;97289.88;5203726;28;20709;-64
2021/03/15 08:29:56;;;;;;;5.10;4.70;;;3.40;99.90;;;4.56;96.07;97288.97;5195735;28;20348;-64
2021/03/15 08:32:35;;;;;;;4.20;3.90;;;3.40;99.90;;;4.51;94.90;97293.69;5184592;28;20202;-64
2021/03/15 08:35:09;;;;;;;4.73;4.33;;;3.40;99.90;;;4.36;95.63;97295.13;5197382;28;20221;-64
2021/03/15 08:37:59;;;;;;;4.10;3.90;;;3.40;99.90;;;4.47;95.55;97291.72;5187965;28;20206;-64
2021/03/15 08:40:54;;;;;;;4.30;4.00;;;3.40;99.90;;;4.45;95.09;97293.25;5192020;28;20230;-63
2021/03/15 08:43:39;;;;;;;4.40;4.13;;;3.30;99.90;;;4.51;94.49;97292.03;5199770;28;20208;-64
2021/03/15 08:46:17;;;;;;;4.43;4.03;;;3.30;99.90;;;4.47;95.10;97291.72;5204034;28;20686;-64
2021/03/15 08:48:54;;;;;;;3.70;3.40;;;3.40;99.90;;;4.47;95.58;97287.53;5198438;28;20202;-65
2021/03/15 08:51:47;;;;;;;3.47;3.27;;;3.40;99.90;;;4.41;95.35;97291.28;5196936;28;20263;-64
2021/03/15 08:54:41;;;;;;;3.90;3.70;;;3.40;99.90;;;4.45;96.18;97286.53;5199675;28;20303;-64
2021/03/15 08:57:30;;;;;;;4.13;3.83;;;3.40;99.90;;;4.49;96.38;97278.41;5204061;28;20603;-65
2021/03/15 09:00:33;;;;;;;3.90;3.70;;;3.50;99.90;;;4.67;94.79;97277.94;5195670;28;20218;-64
2021/03/15 09:03:05;;;;;;;3.47;3.20;;;3.40;99.90;;;4.68;94.88;97285.63;5204335;28;20696;-64
2021/03/15 09:05:44;;;;;;;4.20;3.90;;;3.50;99.90;;;4.70;95.30;97283.22;5198719;28;20281;-64
2021/03/15 09:08:16;;;;;;;3.30;3.10;;;3.50;99.90;;;4.78;95.10;97274.50;5203197;28;20205;-64
2021/03/15 09:10:48;;;;;;;3.50;3.30;;;3.60;99.90;;;4.73;94.68;97278.38;5198794;28;20219;-64
2021/03/15 09:13:29;;;;;;;4.27;3.40;;;3.50;99.90;;;4.73;94.72;97283.44;5203594;28;20197;-64
2021/03/15 09:16:04;;;;;;;3.40;3.20;;;3.50;99.90;;;4.69;95.21;97283.97;5202397;28;20639;-64
2021/03/15 09:18:53;;;;;;;3.30;3.10;;;3.60;99.90;;;4.74;95.56;97280.13;5217625;28;20706;-64
2021/03/15 09:21:50;;;;;;;3.10;2.90;;;3.70;99.90;;;4.93;95.12;97278.09;5217407;28;20710;-64
2021/03/15 09:24:51;;;;;;;3.43;3.20;;;3.70;99.90;;;4.86;95.06;97286.03;5200670;28;20629;-64
2021/03/15 09:27:36;;;;;;;3.80;3.50;;;3.80;99.90;;;4.83;95.41;97278.22;5203489;28;20207;-63
2021/03/15 09:30:13;;;;;;;3.83;3.53;;;3.80;99.90;;;4.80;95.78;97284.72;5205416;28;20245;-64
2021/03/15 09:32:47;;;;;;;4.33;4.03;;;3.80;99.90;;;4.79;96.35;97288.03;5203909;28;20197;-64
2021/03/15 09:35:24;;;;;;;4.80;4.40;;;3.80;99.90;;;4.89;96.46;97277.75;5197033;28;20231;-64
2021/03/15 09:38:01;;;;;;;4.83;4.53;;;3.80;99.90;;;4.84;96.90;97284.19;5199477;28;20191;-64
2021/03/15 09:40:40;;;;;;;5.43;4.93;;;3.90;99.90;;;4.92;97.29;97285.56;5194302;28;20304;-65
2021/03/15 09:43:31;;;;;;;5.23;4.93;;;4.00;99.90;;;5.05;97.12;97277.19;5197367;28;20601;-64
2021/03/15 09:46:09;;;;;;;5.60;5.20;;;4.00;99.90;;;5.00;95.88;97279.38;5190059;28;20692;-64
2021/03/15 09:48:42;;;;;;;6.73;6.13;;;4.00;99.90;;;4.97;96.91;97282.59;5201316;28;20198;-65
2021/03/15 09:51:25;;;;;;;6.67;6.17;;;4.10;99.90;;;5.10;97.40;97280.91;5188223;28;20610;-64
2021/03/15 09:53:58;;;;;;;6.37;5.87;;;4.20;99.90;;;5.29;97.59;97277.97;5192524;28;20197;-64
2021/03/15 09:56:30;;;;;;;6.77;6.17;;;4.30;99.90;;;5.34;96.82;97277.50;5186177;28;20220;-65
2021/03/15 09:59:10;;;;;;;5.63;5.23;;;4.30;99.90;;;5.49;97.05;97271.69;5189322;28;20230;-64
2021/03/15 10:01:45;;;;;;;4.43;4.03;;;4.40;99.90;;;5.57;95.44;97278.16;5197787;28;20874;-65
2021/03/15 10:04:19;;;;;;;3.80;3.50;;;4.40;99.90;;;5.64;95.65;97282.88;5195422;28;20204;-65
2021/03/15 10:06:51;;;;;;;7.03;5.60;;;4.40;99.90;;;5.62;95.86;97269.22;5187686;28;20222;-64
2021/03/15 10:09:24;;;;;;;5.17;4.67;;;4.50;99.90;;;5.62;94.26;97279.34;5184030;28;20337;-64
2021/03/15 10:11:57;;;;;;;4.80;4.40;;;4.50;99.90;;;5.53;95.19;97271.16;5197617;28;20196;-64
2021/03/15 10:14:29;;;;;;;4.20;3.90;;;4.50;99.90;;;5.54;96.38;97277.97;5200255;28;20228;-64
2021/03/15 10:17:03;;;;;;;3.77;3.57;;;4.60;99.90;;;5.72;96.18;97280.81;5194484;28;20198;-64
2021/03/15 10:19:36;;;;;;;3.90;3.70;;;4.60;99.90;;;5.67;95.98;97280.53;5187176;28;20237;-64
2021/03/15 10:22:11;;;;;;;3.27;3.07;;;4.60;99.90;;;5.60;95.43;97275.81;5212301;28;20209;-65
2021/03/15 10:24:47;;;;;;;3.93;3.63;;;4.60;99.90;;;5.63;96.53;97271.84;5200817;28;20312;-64
2021/03/15 10:27:23;;;;;;;3.77;3.37;;;4.60;99.90;;;5.76;94.98;97276.06;5195586;28;20200;-65
2021/03/15 10:29:57;;;;;;;3.17;2.97;;;4.60;99.90;;;5.85;94.03;97273.25;5201739;28;20213;-65
2021/03/15 10:32:30;;;;;;;3.77;3.47;;;4.60;99.90;;;5.71;94.78;97272.34;5203080;28;20197;-60
2021/03/15 10:35:06;;;;;;;3.50;3.23;;;4.60;99.90;;;5.79;95.43;97278.81;5198125;28;20709;-65
2021/03/15 10:37:41;;;;;;;3.23;3.03;;;4.70;99.90;;;5.85;95.79;97284.28;5182574;28;20713;-65
2021/03/15 10:40:19;;;;;;;3.33;3.13;;;4.80;99.90;;;5.87;96.45;97281.84;5201408;28;20218;-65
2021/03/15 10:42:52;;;;;;;4.13;3.30;;;4.80;99.90;;;5.88;95.94;97279.41;5203158;28;20210;-66
2021/03/15 10:45:27;;;;;;;3.83;3.53;;;4.90;99.90;;;5.95;96.40;97279.84;5206112;28;20203;-65
2021/03/15 10:48:02;;;;;;;4.50;4.10;;;4.90;99.90;;;6.01;96.49;97276.06;5205322;28;20197;-57
2021/03/15 10:50:38;;;;;;;4.10;3.80;;;5.00;99.90;;;6.03;97.06;97278.69;5206541;28;20290;-60
2021/03/15 10:53:12;;;;;;;3.80;3.50;;;5.00;99.90;;;6.08;96.42;97279.88;5207040;28;20279;-62
2021/03/15 10:55:46;;;;;;;3.73;3.53;;;5.00;99.90;;;6.05;96.19;97288.16;5206975;28;20854;-63
2021/03/15 10:58:20;;;;;;;4.27;3.87;;;5.10;99.90;;;6.06;95.55;97281.41;5203438;28;20734;-61
2021/03/15 11:03:29;;;;;;;4.30;4.00;;;4.90;99.90;;;5.83;95.39;97285.81;5182138;28;20202;-63
2021/03/15 11:06:04;;;;;;;4.07;3.77;;;4.90;99.90;;;5.95;95.67;97287.44;5183934;28;20194;-62
2021/03/15 11:08:37;;;;;;;3.93;3.73;;;5.00;99.90;;;5.97;95.64;97293.50;5176553;28;20658;-65
2021/03/15 11:11:14;;;;;;;3.17;2.97;;;4.90;99.90;;;5.80;95.92;97298.31;5178693;28;20229;-65